createdAt,value
2022-08-07T00:01:43.322Z,0.80
2022-08-07T00:06:29.594Z,0.80
2022-08-07T00:11:39.989Z,0.90
2022-08-07T00:16:59.039Z,0.77
2022-08-07T00:22:03.482Z,0.90
2022-08-07T00:27:07.761Z,0.70
2022-08-07T00:32:14.665Z,0.90
2022-08-07T00:37:19.334Z,0.90
2022-08-07T00:42:29.204Z,1.20
2022-08-07T00:48:10.305Z,0.90
2022-08-07T00:52:56.155Z,1.10
2022-08-07T00:57:59.472Z,1.13
2022-08-07T01:08:08.962Z,1.00
2022-08-07T01:13:12.776Z,0.93
2022-08-07T01:18:19.733Z,1.00
2022-08-07T01:23:32.684Z,1.07
2022-08-07T01:28:48.366Z,1.10
2022-08-07T01:33:55.051Z,1.00
2022-08-07T01:39:00.393Z,1.10
2022-08-07T01:49:07.532Z,1.20
2022-08-07T01:54:36.323Z,1.00
2022-08-07T01:59:48.250Z,1.30
2022-08-07T02:05:04.880Z,1.30
2022-08-07T02:10:10.030Z,1.00
2022-08-07T02:15:23.143Z,1.13
2022-08-07T02:20:32.058Z,1.20
2022-08-07T02:26:31.267Z,1.35
2022-08-07T02:31:28.589Z,1.25
2022-08-07T02:36:32.881Z,1.15
2022-08-07T02:41:37.773Z,1.05
2022-08-07T02:46:46.807Z,1.23
2022-08-07T02:51:58.042Z,1.10
2022-08-07T02:57:03.341Z,1.20
2022-08-07T03:02:11.052Z,1.10
2022-08-07T03:07:16.568Z,1.50
2022-08-07T03:12:31.026Z,1.42
2022-08-07T03:17:52.891Z,1.27
2022-08-07T03:22:59.350Z,1.23
2022-08-07T03:28:37.697Z,1.20
2022-08-07T03:33:39.898Z,1.30
2022-08-07T03:38:44.988Z,1.30
2022-08-07T03:43:57.188Z,1.30
2022-08-07T03:49:02.596Z,1.20
2022-08-07T03:54:35.746Z,1.40
2022-08-07T03:59:33.335Z,1.37
2022-08-07T04:04:37.416Z,1.75
2022-08-07T04:14:55.249Z,1.42
2022-08-07T04:19:59.873Z,1.70
2022-08-07T04:25:08.866Z,1.30
2022-08-07T04:30:43.570Z,1.45
2022-08-07T04:35:58.634Z,1.50
2022-08-07T04:41:01.361Z,1.70
2022-08-07T04:47:04.240Z,1.30
2022-08-07T04:52:14.716Z,1.45
2022-08-07T04:58:27.435Z,1.40
2022-08-07T05:03:17.082Z,1.15
2022-08-07T05:09:01.049Z,1.40
2022-08-07T05:14:55.622Z,1.45
2022-08-07T05:19:45.031Z,1.25
2022-08-07T05:24:51.910Z,1.27
2022-08-07T05:29:55.286Z,1.30
2022-08-07T05:34:59.993Z,1.20
2022-08-07T05:40:18.366Z,1.50
2022-08-07T05:45:46.093Z,1.30
2022-08-07T05:50:45.763Z,1.23
2022-08-07T05:56:02.075Z,1.23
2022-08-07T06:01:10.726Z,1.30
2022-08-07T06:06:18.906Z,1.30
2022-08-07T06:11:22.360Z,1.40
2022-08-07T06:16:32.563Z,1.40
2022-08-07T06:22:16.075Z,1.45
2022-08-07T06:32:06.635Z,1.20
2022-08-07T06:37:11.317Z,1.30
2022-08-07T06:42:33.188Z,1.52
2022-08-07T06:47:38.754Z,1.60
2022-08-07T06:53:04.106Z,1.52
2022-08-07T06:58:10.673Z,1.30
2022-08-07T07:03:17.039Z,1.23
2022-08-07T07:08:26.487Z,1.52
2022-08-07T07:13:55.440Z,1.85
2022-08-07T07:19:56.262Z,1.63
2022-08-07T07:24:27.721Z,1.35
2022-08-07T07:29:55.815Z,1.98
2022-08-07T07:35:04.069Z,1.60
2022-08-07T07:40:15.207Z,1.50
2022-08-07T07:45:21.038Z,1.58
2022-08-07T07:50:44.079Z,1.67
2022-08-07T07:55:57.533Z,1.40
2022-08-07T08:02:03.296Z,1.40
2022-08-07T08:06:28.109Z,1.60
2022-08-07T08:12:00.008Z,1.60
2022-08-07T08:17:55.576Z,1.50
2022-08-07T08:22:56.099Z,1.50
2022-08-07T08:28:04.274Z,1.48
2022-08-07T08:33:10.281Z,1.50
2022-08-07T08:38:20.670Z,1.40
2022-08-07T08:43:42.762Z,1.50
2022-08-07T08:49:10.883Z,1.58
2022-08-07T08:54:27.349Z,1.42
2022-08-07T08:59:42.357Z,1.60
2022-08-07T09:04:59.065Z,1.33
2022-08-07T09:10:30.204Z,1.58
2022-08-07T09:16:25.379Z,1.42
2022-08-07T09:21:58.549Z,1.38
2022-08-07T09:27:09.005Z,1.40
2022-08-07T09:32:31.067Z,1.48
2022-08-07T09:38:10.245Z,1.40
2022-08-07T09:50:01.835Z,1.55
2022-08-07T09:55:29.713Z,1.33
2022-08-07T10:05:59.800Z,1.30
2022-08-07T10:12:01.579Z,1.30
2022-08-07T10:17:25.004Z,1.67
2022-08-07T10:23:02.620Z,1.50
2022-08-07T10:33:03.975Z,1.30
2022-08-07T10:38:35.725Z,1.52
2022-08-07T10:44:07.597Z,1.38
2022-08-07T10:49:49.956Z,1.85
2022-08-07T10:55:07.902Z,1.80
2022-08-07T11:00:39.423Z,1.60
2022-08-07T11:06:18.319Z,1.60
2022-08-07T11:11:35.745Z,1.70
2022-08-07T11:16:54.814Z,1.90
2022-08-07T11:22:11.213Z,1.67
2022-08-07T11:28:00.836Z,2.03
2022-08-07T11:33:08.094Z,2.20
2022-08-07T11:38:32.668Z,2.22
2022-08-07T11:44:11.138Z,1.98
2022-08-07T11:50:30.331Z,2.30
2022-08-07T11:55:19.002Z,2.00
2022-08-07T12:01:02.501Z,2.35
2022-08-07T12:06:37.424Z,2.10
2022-08-07T12:12:09.220Z,2.47
2022-08-07T12:17:20.389Z,2.65
2022-08-07T12:22:58.294Z,2.60
2022-08-07T12:28:16.937Z,2.40
2022-08-07T12:33:56.690Z,2.08
2022-08-07T12:38:58.947Z,2.10
2022-08-07T12:44:10.406Z,2.20
2022-08-07T12:49:48.485Z,2.20
2022-08-07T12:55:19.981Z,2.38
2022-08-07T13:00:32.777Z,2.22
2022-08-07T13:06:26.912Z,2.30
2022-08-07T13:12:02.035Z,2.20
2022-08-07T13:17:14.211Z,2.80
2022-08-07T13:22:35.616Z,2.53
2022-08-07T13:28:12.603Z,2.47
2022-08-07T13:34:30.769Z,2.33
2022-08-07T13:39:49.683Z,2.40
2022-08-07T13:44:39.711Z,2.50
2022-08-07T13:50:34.180Z,2.80
2022-08-07T13:55:19.532Z,3.17
2022-08-07T14:00:50.355Z,3.15
2022-08-07T14:05:59.380Z,2.83
2022-08-07T14:11:15.313Z,3.08
2022-08-07T14:16:27.257Z,3.30
2022-08-07T14:22:01.120Z,3.10
2022-08-07T14:27:16.111Z,2.72
2022-08-07T14:32:42.120Z,3.17
2022-08-07T14:38:05.751Z,3.00
2022-08-07T14:43:57.572Z,2.97
2022-08-07T14:48:42.461Z,3.33
2022-08-07T14:54:08.980Z,3.00
2022-08-07T15:04:41.932Z,3.25
2022-08-07T15:15:30.592Z,2.97
2022-08-07T15:20:55.154Z,2.88
2022-08-07T15:26:03.093Z,3.05
2022-08-07T15:31:10.380Z,2.90
2022-08-07T15:36:26.249Z,3.40
2022-08-07T15:52:51.745Z,3.80
2022-08-07T15:58:00.332Z,3.15
2022-08-07T16:03:22.098Z,3.78
2022-08-07T16:08:41.475Z,3.88
2022-08-07T16:14:04.320Z,3.72
2022-08-07T16:19:19.710Z,4.03
2022-08-07T16:24:56.379Z,3.65
2022-08-07T16:30:31.522Z,4.07
2022-08-07T16:35:56.954Z,3.85
2022-08-07T16:41:29.538Z,3.70
2022-08-07T16:47:56.515Z,3.47
2022-08-07T16:53:20.607Z,3.63
2022-08-07T16:59:10.889Z,3.90
2022-08-07T17:04:58.880Z,4.15
2022-08-07T17:10:32.317Z,3.55
2022-08-07T17:16:00.308Z,3.88
2022-08-07T17:21:18.944Z,3.70
2022-08-07T17:26:49.724Z,4.10
2022-08-07T17:32:30.595Z,4.45
2022-08-07T17:38:06.037Z,5.03
2022-08-07T17:43:18.560Z,4.60
2022-08-07T17:48:31.047Z,4.30
2022-08-07T17:54:06.379Z,4.93
2022-08-07T17:59:42.923Z,4.00
2022-08-07T18:04:56.820Z,4.55
2022-08-07T18:15:23.642Z,3.40
2022-08-07T18:21:04.569Z,4.18
2022-08-07T18:26:15.236Z,3.63
2022-08-07T18:31:33.879Z,3.45
2022-08-07T18:36:53.846Z,3.33
2022-08-07T18:42:13.285Z,3.35
2022-08-07T18:47:44.467Z,3.20
2022-08-07T18:53:06.096Z,3.38
2022-08-07T18:58:51.163Z,2.97
2022-08-07T19:04:28.146Z,3.38
2022-08-07T19:10:04.559Z,3.50
2022-08-07T19:16:02.803Z,2.95
2022-08-07T19:21:08.998Z,2.88
2022-08-07T19:26:24.007Z,3.20
2022-08-07T19:32:01.158Z,3.35
2022-08-07T19:37:10.102Z,3.00
2022-08-07T19:42:40.206Z,3.08
2022-08-07T19:47:44.908Z,2.92
2022-08-07T19:52:58.541Z,3.03
2022-08-07T19:58:14.247Z,3.10
2022-08-07T20:03:35.296Z,2.70
2022-08-07T20:08:48.756Z,2.55
2022-08-07T20:13:55.925Z,2.70
2022-08-07T20:19:04.375Z,2.40
2022-08-07T20:24:15.524Z,2.42
2022-08-07T20:29:48.031Z,2.42
2022-08-07T20:34:51.178Z,2.42
2022-08-07T20:40:04.188Z,2.20
2022-08-07T20:45:32.997Z,2.70
2022-08-07T20:50:34.062Z,2.40
2022-08-07T20:55:38.716Z,2.40
2022-08-07T21:00:46.859Z,2.40
2022-08-07T21:06:22.369Z,2.30
2022-08-07T21:11:46.173Z,2.42
2022-08-07T21:18:00.721Z,2.50
2022-08-07T21:22:28.214Z,2.40
2022-08-07T21:27:53.846Z,2.88
2022-08-07T21:33:12.337Z,2.28
2022-08-07T21:38:29.333Z,2.08
2022-08-07T21:44:28.564Z,2.40
2022-08-07T21:50:16.601Z,2.13
2022-08-07T21:55:29.973Z,2.53
2022-08-07T22:00:34.476Z,2.20
2022-08-07T22:06:01.325Z,2.05
2022-08-07T22:11:06.962Z,2.22
2022-08-07T22:16:42.880Z,2.38
2022-08-07T22:22:02.652Z,2.35
2022-08-07T22:28:07.489Z,2.10
2022-08-07T22:33:15.039Z,2.00
2022-08-07T22:38:39.994Z,2.20
2022-08-07T22:43:56.931Z,2.05
2022-08-07T22:49:16.148Z,1.70
2022-08-07T22:54:48.849Z,2.03
2022-08-07T23:00:14.990Z,1.83
2022-08-07T23:06:07.065Z,1.90
2022-08-07T23:11:41.164Z,2.10
2022-08-07T23:16:54.920Z,1.90
2022-08-07T23:22:23.892Z,1.80
2022-08-07T23:27:34.132Z,1.80
2022-08-07T23:34:21.311Z,1.73
2022-08-07T23:38:19.390Z,1.80
2022-08-07T23:43:44.924Z,1.97
2022-08-07T23:49:03.763Z,1.73
2022-08-07T23:54:19.985Z,1.73
